Weather at Sugar Valley Airport

Public forecast

Using degrees Fahrenheit for public forecast. Weather courtesy of forecast.io.

Closest aviation weather report (METAR) to Sugar Valley Airport

Closest report is Davidson County Airport, 15.9 nm (29.4 km) SE. Retrieved 2021/01/20 05:35 UTC (0 seconds ago):

KEXX 200535Z AUTO 23004KT 10SM CLR 05/M01 A3011 RMK AO2 T00491012

Closest aviation forecast (TAF) to Sugar Valley Airport

Closest forecast is Smith Reynolds Airport, 16.6 nm (30.8 km) ENE. Retrieved 2021-01-20 00:22 UTC (5 hours ago):

TAF KINT 192320Z 2000/2024 23005KT P6SM BKN080 FM200600 25004KT P6SM SCT080 FM201400 30012G24KT P6SM SKC